Weather at Mountain Park Health Center Heliport

Public forecast

Using degrees Fahrenheit for public forecast. Weather courtesy of forecast.io.

Closest aviation weather report (METAR) to Mountain Park Health Center Heliport

Closest report is Phoenix Goodyear Airport, 1.7 nm (3.2 km) SSW. Retrieved 2021/06/20 02:47 UTC (1 hour ago):

KGYR 200247Z 25010KT 10SM SKC 42/11 A2955

Closest aviation forecast (TAF) to Mountain Park Health Center Heliport

Forecast is more than 12 hours old.

Closest forecast is Luke Air Force Base, 5.4 nm (9.9 km) NNW. Retrieved 2021/06/18 20:25 UTC (1 day ago):

TAF KLUF 182000Z 1820/2002 VRB06KT 9999 FEW200 QNH2961INS BECMG 1820/1821 22012G18KT 9999 FEW180 QNH2956INS BECMG 1901/1902 VRB06KT 9999 FEW200 QNH2963INS TEMPO 1922/2002 24010G15KT TX47/1823Z TN30/1913Z LAST NO AMDS AFT 1902 NEXT 2112